Time;durP1;ratioP1;P1;durP2;ratioP2;P2;SDS_P1;SDS_P2;PMS_P1;PMS_P2;Temp;Humidity;BMP_temperature;BMP_pressure;BME280_temperature;BME280_humidity;BME280_pressure;Samples;Min_cycle;Max_cycle;Signal;HPM_P1;HPM_P2
2022/04/08 00:00:47;;;;;;;9.32;0.98;;;6.20;99.90;;;;;;5031563;28;20037;-59
2022/04/08 00:03:13;;;;;;;8.43;0.93;;;6.20;99.90;;;;;;5048137;28;20063;-61
2022/04/08 00:05:38;;;;;;;19.95;1.95;;;6.20;99.90;;;;;;5050191;28;20477;-60
2022/04/08 00:08:04;;;;;;;11.45;1.45;;;6.20;99.90;;;;;;5050000;28;20048;-59
2022/04/08 00:10:30;;;;;;;5.75;0.80;;;6.20;99.90;;;;;;5048449;28;20562;-59
2022/04/08 00:12:55;;;;;;;14.07;1.42;;;6.10;99.90;;;;;;5050193;28;20098;-61
2022/04/08 00:15:21;;;;;;;8.68;1.55;;;6.10;99.90;;;;;;5049714;28;20055;-62
2022/04/08 00:17:46;;;;;;;15.15;2.13;;;6.10;99.90;;;;;;5049780;28;20041;-60
2022/04/08 00:20:12;;;;;;;13.27;2.22;;;6.10;99.90;;;;;;5047359;28;20041;-59
2022/04/08 00:22:40;;;;;;;13.43;2.47;;;6.00;99.90;;;;;;5031604;28;20041;-60
2022/04/08 00:25:07;;;;;;;7.82;2.03;;;5.90;99.90;;;;;;5049977;28;20485;-60
2022/04/08 00:27:32;;;;;;;8.27;1.25;;;5.90;99.90;;;;;;5047990;28;20064;-62
2022/04/08 00:29:58;;;;;;;7.95;1.05;;;5.80;99.90;;;;;;5049231;28;20456;-60
2022/04/08 00:32:24;;;;;;;13.52;1.10;;;5.80;99.90;;;;;;5049385;28;20079;-60
2022/04/08 00:34:50;;;;;;;19.30;2.88;;;5.80;99.90;;;;;;5045847;28;20474;-60
2022/04/08 00:37:15;;;;;;;11.77;1.35;;;5.80;99.90;;;;;;5049047;28;20036;-60
2022/04/08 00:39:41;;;;;;;6.28;2.05;;;5.90;99.90;;;;;;5049078;28;20477;-61
2022/04/08 00:42:06;;;;;;;8.40;1.05;;;5.90;99.90;;;;;;5050926;28;20160;-60
2022/04/08 00:44:32;;;;;;;9.90;1.13;;;5.90;99.90;;;;;;5030774;28;20468;-61
2022/04/08 00:46:58;;;;;;;10.50;1.00;;;5.90;99.90;;;;;;5049452;28;20789;-60
2022/04/08 00:49:23;;;;;;;11.10;1.20;;;5.90;99.90;;;;;;5049064;28;20041;-60
2022/04/08 00:51:50;;;;;;;10.45;1.40;;;5.80;99.90;;;;;;5047935;28;20035;-61
2022/04/08 00:54:16;;;;;;;8.63;1.67;;;5.70;99.90;;;;;;5048814;28;20021;-59
2022/04/08 00:56:42;;;;;;;10.65;1.50;;;5.60;99.90;;;;;;5048967;28;20052;-59
2022/04/08 00:59:08;;;;;;;17.45;1.67;;;5.50;99.90;;;;;;5048834;28;20033;-64
2022/04/08 01:01:33;;;;;;;19.73;1.67;;;5.40;99.90;;;;;;5047548;28;20061;-59
2022/04/08 01:03:59;;;;;;;15.15;2.30;;;5.40;99.90;;;;;;5047457;28;20816;-60
2022/04/08 01:06:26;;;;;;;14.35;0.98;;;5.40;99.90;;;;;;5047574;28;20040;-61
2022/04/08 01:08:53;;;;;;;13.43;2.85;;;5.30;99.90;;;;;;5048668;28;20025;-59
2022/04/08 01:11:18;;;;;;;11.35;1.95;;;5.30;99.90;;;;;;5047536;28;20036;-59
2022/04/08 01:13:45;;;;;;;16.30;1.63;;;5.30;99.90;;;;;;5048449;28;20032;-61
2022/04/08 01:16:10;;;;;;;13.43;2.85;;;5.30;99.90;;;;;;5047228;28;20072;-60
2022/04/08 01:18:37;;;;;;;16.55;1.73;;;5.20;99.90;;;;;;5048015;28;20084;-59
2022/04/08 01:21:06;;;;;;;13.88;1.38;;;5.20;99.90;;;;;;5047503;28;20086;-60
2022/04/08 01:23:36;;;;;;;10.73;1.48;;;5.20;99.90;;;;;;5047696;28;20587;-61
2022/04/08 01:26:05;;;;;;;13.07;2.10;;;5.10;99.90;;;;;;5048514;28;20056;-59
2022/04/08 01:28:31;;;;;;;17.05;1.27;;;5.10;99.90;;;;;;5029787;28;20044;-59
2022/04/08 01:30:56;;;;;;;8.27;1.25;;;5.00;99.90;;;;;;5047295;28;20059;-60
2022/04/08 01:33:22;;;;;;;12.13;1.27;;;5.00;99.90;;;;;;5047360;28;20037;-62
2022/04/08 01:35:47;;;;;;;8.23;1.27;;;4.90;99.90;;;;;;5048534;28;20040;-59
2022/04/08 01:38:13;;;;;;;12.38;1.15;;;4.90;99.90;;;;;;5047684;28;20051;-60
2022/04/08 01:40:38;;;;;;;11.68;1.95;;;4.90;99.90;;;;;;5047374;28;20068;-61
2022/04/08 01:43:04;;;;;;;15.45;1.02;;;4.90;99.90;;;;;;5049762;28;20044;-61
2022/04/08 01:45:30;;;;;;;11.07;1.98;;;4.80;99.90;;;;;;5047180;28;20029;-60
2022/04/08 01:47:55;;;;;;;7.68;0.90;;;4.80;99.90;;;;;;5047593;28;20032;-61
2022/04/08 01:50:22;;;;;;;11.93;2.03;;;4.80;99.90;;;;;;5046269;28;20048;-61
2022/04/08 01:52:48;;;;;;;10.07;1.00;;;4.70;99.90;;;;;;5047993;28;20489;-62
2022/04/08 01:55:14;;;;;;;6.35;1.20;;;4.70;99.90;;;;;;5047099;28;20033;-61
2022/04/08 01:57:41;;;;;;;8.38;1.13;;;4.70;99.90;;;;;;5047667;28;20040;-59
2022/04/08 02:00:08;;;;;;;9.40;0.80;;;4.70;99.90;;;;;;5046781;28;20097;-60
2022/04/08 02:02:35;;;;;;;11.07;1.55;;;4.70;99.90;;;;;;5045583;28;20392;-59
2022/04/08 02:05:02;;;;;;;6.18;1.30;;;4.70;99.90;;;;;;5047830;28;20409;-60
2022/04/08 02:07:28;;;;;;;4.55;0.70;;;4.70;99.90;;;;;;5046987;28;20033;-59
2022/04/08 02:09:54;;;;;;;13.95;1.73;;;4.80;99.90;;;;;;5046769;28;20413;-61
2022/04/08 02:12:20;;;;;;;8.32;1.23;;;4.90;99.90;;;;;;5046542;28;20051;-62
2022/04/08 02:14:46;;;;;;;10.00;1.73;;;5.00;99.90;;;;;;5030005;28;20033;-61
2022/04/08 02:17:12;;;;;;;6.22;1.20;;;5.10;99.90;;;;;;5046872;28;20090;-59
2022/04/08 02:19:37;;;;;;;9.60;1.80;;;5.20;99.90;;;;;;5047218;28;20386;-61
2022/04/08 02:22:05;;;;;;;10.00;1.30;;;5.20;99.90;;;;;;5047050;28;20390;-61
2022/04/08 02:24:32;;;;;;;5.50;0.80;;;5.10;99.90;;;;;;5046964;28;20760;-59
2022/04/08 02:26:58;;;;;;;8.27;2.00;;;5.10;99.90;;;;;;5047585;28;20114;-60
2022/04/08 02:29:24;;;;;;;8.15;0.43;;;5.00;99.90;;;;;;5046750;28;20045;-61
2022/04/08 02:31:50;;;;;;;7.53;0.75;;;5.00;99.90;;;;;;5046704;28;20021;-62
2022/04/08 02:34:17;;;;;;;14.38;1.77;;;5.00;99.90;;;;;;5046621;28;20044;-61
2022/04/08 02:36:42;;;;;;;4.88;0.98;;;4.90;99.90;;;;;;5047747;28;20082;-61
2022/04/08 02:39:08;;;;;;;4.45;1.08;;;4.90;99.90;;;;;;5047092;28;20036;-61
2022/04/08 02:41:34;;;;;;;7.70;0.40;;;4.90;99.90;;;;;;5046033;28;20037;-62
2022/04/08 02:44:00;;;;;;;3.95;0.60;;;4.80;99.90;;;;;;5048591;28;20661;-61
2022/04/08 02:46:25;;;;;;;9.27;1.45;;;4.80;99.90;;;;;;5046595;28;20082;-61
2022/04/08 02:48:51;;;;;;;15.15;1.00;;;4.70;99.90;;;;;;5046932;28;20560;-61
2022/04/08 02:51:16;;;;;;;15.13;1.85;;;4.60;99.90;;;;;;5042501;28;20117;-61
2022/04/08 02:53:42;;;;;;;6.35;0.95;;;4.50;99.90;;;;;;5035161;28;20037;-61
2022/04/08 02:56:08;;;;;;;3.22;0.45;;;4.50;99.90;;;;;;5038510;28;20112;-61
2022/04/08 02:58:35;;;;;;;7.30;1.23;;;4.40;99.90;;;;;;5035642;28;20059;-62
2022/04/08 03:01:01;;;;;;;8.90;1.60;;;4.40;99.90;;;;;;5036237;28;20547;-61
2022/04/08 03:03:27;;;;;;;6.68;0.70;;;4.40;99.90;;;;;;5035216;28;20033;-62
2022/04/08 03:05:53;;;;;;;7.85;0.85;;;4.30;99.90;;;;;;5036251;28;20461;-61
2022/04/08 03:08:20;;;;;;;9.48;0.88;;;4.20;99.90;;;;;;5037358;28;20078;-63
2022/04/08 03:10:45;;;;;;;3.83;0.85;;;4.20;99.90;;;;;;5034557;28;20033;-61
2022/04/08 03:13:11;;;;;;;5.25;0.70;;;4.10;99.90;;;;;;5038125;28;20401;-62
2022/04/08 03:15:39;;;;;;;8.32;2.78;;;4.10;99.90;;;;;;5035161;28;20080;-61
2022/04/08 03:18:05;;;;;;;3.92;1.08;;;4.00;99.90;;;;;;5038013;28;20029;-61
2022/04/08 03:20:30;;;;;;;5.13;0.90;;;4.00;99.90;;;;;;5034456;28;20033;-61
2022/04/08 03:22:56;;;;;;;8.00;1.08;;;3.90;99.90;;;;;;5036775;28;20155;-63
2022/04/08 03:25:22;;;;;;;8.57;1.33;;;3.90;99.90;;;;;;5036562;28;20048;-61
2022/04/08 03:27:47;;;;;;;9.05;0.80;;;3.90;99.90;;;;;;5035633;28;20032;-61
2022/04/08 03:30:13;;;;;;;7.05;0.93;;;3.80;99.90;;;;;;5041222;28;20052;-61
2022/04/08 03:32:38;;;;;;;9.52;1.73;;;3.80;99.90;;;;;;5046454;28;20033;-61
2022/04/08 03:35:05;;;;;;;10.35;1.70;;;3.80;99.90;;;;;;5049884;28;20044;-61
2022/04/08 03:37:30;;;;;;;3.70;0.70;;;3.70;99.90;;;;;;5049641;28;20052;-62
2022/04/08 03:39:56;;;;;;;4.40;0.90;;;3.70;99.90;;;;;;5049535;28;20056;-61
2022/04/08 03:42:22;;;;;;;6.68;1.20;;;3.70;99.90;;;;;;5050560;28;20232;-62
2022/04/08 03:44:49;;;;;;;3.92;0.50;;;3.60;99.90;;;;;;5049937;28;20033;-62
2022/04/08 03:47:15;;;;;;;10.07;1.85;;;3.60;99.90;;;;;;5049756;28;20037;-61
2022/04/08 03:49:41;;;;;;;7.53;1.40;;;3.50;99.90;;;;;;5049698;28;20040;-63
2022/04/08 03:52:09;;;;;;;13.13;1.40;;;3.50;99.90;;;;;;5049082;28;20044;-62
2022/04/08 03:54:38;;;;;;;10.63;1.15;;;3.50;99.90;;;;;;5049560;28;20036;-62
2022/04/08 03:57:05;;;;;;;8.35;2.25;;;3.50;99.90;;;;;;5049970;28;20025;-61
2022/04/08 03:59:31;;;;;;;5.45;1.50;;;3.40;99.90;;;;;;5049170;28;20041;-60
2022/04/08 04:01:57;;;;;;;6.32;0.70;;;3.40;99.90;;;;;;5047697;28;20040;-61
2022/04/08 04:04:23;;;;;;;6.93;1.60;;;3.40;99.90;;;;;;5031337;28;20048;-61
2022/04/08 04:06:49;;;;;;;7.45;1.10;;;3.40;99.90;;;;;;5050040;28;20036;-60
2022/04/08 04:09:14;;;;;;;10.50;1.40;;;3.30;99.90;;;;;;5049169;28;20033;-60
2022/04/08 04:11:41;;;;;;;8.60;1.40;;;3.40;99.90;;;;;;5049177;28;20033;-62
2022/04/08 04:14:06;;;;;;;5.82;1.02;;;3.30;99.90;;;;;;5045710;28;20033;-62
2022/04/08 04:16:33;;;;;;;6.45;1.10;;;3.30;99.90;;;;;;5048909;28;20032;-62
2022/04/08 04:18:58;;;;;;;4.28;1.00;;;3.30;99.90;;;;;;5049563;28;20489;-60
2022/04/08 04:21:24;;;;;;;12.07;1.00;;;3.30;99.90;;;;;;5048065;28;20052;-60
2022/04/08 04:23:51;;;;;;;5.13;0.95;;;3.30;99.90;;;;;;5049580;28;20404;-61
2022/04/08 04:26:16;;;;;;;5.55;1.10;;;3.20;99.90;;;;;;5048553;28;20033;-61
2022/04/08 04:28:42;;;;;;;9.57;1.67;;;3.20;99.90;;;;;;5049319;28;20047;-61
2022/04/08 04:31:08;;;;;;;8.57;1.30;;;3.20;99.90;;;;;;5048632;28;20378;-61
2022/04/08 04:33:33;;;;;;;4.70;1.48;;;3.20;99.90;;;;;;5048871;28;20025;-61
2022/04/08 04:35:59;;;;;;;10.75;1.92;;;3.20;99.90;;;;;;5049217;28;20512;-61
2022/04/08 04:38:25;;;;;;;3.70;0.90;;;3.20;99.90;;;;;;5030868;28;20405;-60
2022/04/08 04:40:50;;;;;;;2.67;1.13;;;3.30;99.90;;;;;;5047033;28;20047;-61
2022/04/08 04:43:16;;;;;;;9.25;2.03;;;3.30;99.90;;;;;;5048899;28;20034;-61
2022/04/08 04:45:42;;;;;;;15.73;2.83;;;3.30;99.90;;;;;;5048673;28;20571;-62
2022/04/08 04:48:12;;;;;;;4.57;1.05;;;3.30;99.90;;;;;;5049249;28;20152;-62
2022/04/08 04:50:38;;;;;;;6.03;1.40;;;3.30;99.90;;;;;;5044431;28;20033;-61
2022/04/08 04:53:05;;;;;;;8.48;1.17;;;3.30;99.90;;;;;;5045436;28;20038;-62
2022/04/08 04:55:30;;;;;;;5.40;1.35;;;3.40;99.90;;;;;;5048232;28;20060;-62
2022/04/08 04:57:57;;;;;;;2.97;0.88;;;3.40;99.90;;;;;;5048715;28;20952;-60
2022/04/08 05:00:23;;;;;;;10.40;1.15;;;3.40;99.90;;;;;;5047193;28;20063;-62
2022/04/08 05:02:48;;;;;;;2.70;1.02;;;3.40;99.90;;;;;;5047539;28;20033;-61
2022/04/08 05:05:14;;;;;;;3.58;0.98;;;3.50;99.90;;;;;;5048174;28;20512;-60
2022/04/08 05:07:40;;;;;;;4.03;1.02;;;3.50;99.90;;;;;;5048538;28;20575;-61
2022/04/08 05:10:06;;;;;;;5.30;0.80;;;3.50;99.90;;;;;;5047886;28;20052;-61
2022/04/08 05:12:35;;;;;;;11.80;1.67;;;3.50;99.90;;;;;;5047924;28;20040;-61
2022/04/08 05:15:02;;;;;;;3.03;1.10;;;3.50;99.90;;;;;;5048715;28;20500;-63
2022/04/08 05:17:28;;;;;;;6.38;0.95;;;3.50;99.90;;;;;;5047676;28;20500;-62
2022/04/08 05:19:54;;;;;;;8.15;1.42;;;3.60;99.90;;;;;;5047846;28;20591;-61
2022/04/08 05:22:20;;;;;;;4.95;1.00;;;3.60;99.90;;;;;;5047834;28;20109;-62
2022/04/08 05:24:45;;;;;;;8.95;1.25;;;3.60;99.90;;;;;;5048262;28;20032;-61
2022/04/08 05:27:11;;;;;;;4.25;0.90;;;3.60;99.90;;;;;;5047887;28;20037;-63
2022/04/08 05:29:36;;;;;;;5.65;1.20;;;3.60;99.90;;;;;;5048470;28;20484;-62
2022/04/08 05:32:02;;;;;;;7.70;1.85;;;3.60;99.90;;;;;;5044057;28;20396;-61
2022/04/08 05:34:27;;;;;;;6.03;0.93;;;3.60;99.90;;;;;;5047827;28;20056;-61
2022/04/08 05:36:53;;;;;;;3.83;0.90;;;3.70;99.90;;;;;;5048125;28;20277;-60
2022/04/08 05:39:19;;;;;;;5.15;1.10;;;3.70;99.90;;;;;;5047589;28;20045;-61
2022/04/08 05:41:44;;;;;;;7.50;0.85;;;3.80;99.90;;;;;;5048206;28;20048;-61
2022/04/08 05:44:10;;;;;;;6.43;1.50;;;3.80;99.90;;;;;;5050489;28;20497;-62
2022/04/08 05:46:35;;;;;;;5.13;1.65;;;3.90;99.90;;;;;;5047524;28;20393;-61
2022/04/08 05:49:01;;;;;;;11.10;1.15;;;4.00;99.90;;;;;;5047743;28;20107;-61
2022/04/08 05:51:27;;;;;;;6.38;1.33;;;4.10;99.90;;;;;;5046249;28;20037;-60
2022/04/08 05:53:52;;;;;;;19.75;1.40;;;4.30;99.90;;;;;;5047683;28;20117;-61
2022/04/08 05:56:18;;;;;;;6.57;1.90;;;4.60;99.90;;;;;;5046884;28;20033;-61
2022/04/08 05:58:43;;;;;;;8.80;1.58;;;5.00;99.90;;;;;;5047978;28;20037;-60
2022/04/08 06:01:10;;;;;;;6.28;0.60;;;5.40;99.90;;;;;;5046680;28;20041;-61
2022/04/08 06:03:36;;;;;;;7.28;1.40;;;5.90;99.90;;;;;;5045656;28;20039;-62
2022/04/08 06:06:01;;;;;;;4.68;1.05;;;6.30;99.90;;;;;;5047748;28;20400;-61
2022/04/08 06:08:27;;;;;;;9.15;1.60;;;6.80;99.90;;;;;;5043743;28;20033;-61
2022/04/08 06:10:53;;;;;;;3.13;0.60;;;7.00;99.90;;;;;;5035635;28;20072;-61
2022/04/08 06:13:24;;;;;;;7.82;1.50;;;7.10;99.90;;;;;;5037094;28;20043;-60
2022/04/08 06:15:51;;;;;;;2.88;0.90;;;7.10;99.90;;;;;;5039535;28;20052;-61
2022/04/08 06:18:18;;;;;;;5.63;0.77;;;7.10;99.90;;;;;;5033993;28;20490;-61
2022/04/08 06:20:44;;;;;;;3.88;0.60;;;7.10;99.90;;;;;;5043806;28;20148;-61
2022/04/08 06:23:09;;;;;;;5.85;0.65;;;7.10;99.90;;;;;;5045697;28;20119;-64
2022/04/08 06:25:35;;;;;;;3.20;0.90;;;7.10;99.90;;;;;;5047772;28;20086;-61
2022/04/08 06:28:03;;;;;;;10.20;0.75;;;7.10;99.90;;;;;;5036198;28;20044;-62
2022/04/08 06:30:30;;;;;;;3.13;0.73;;;7.20;99.90;;;;;;5035543;28;20378;-61
2022/04/08 06:32:56;;;;;;;5.20;0.77;;;7.40;99.90;;;;;;5015818;28;20629;-61
2022/04/08 06:35:22;;;;;;;3.83;0.68;;;7.50;99.90;;;;;;5032678;28;20132;-61
2022/04/08 06:37:48;;;;;;;5.53;0.98;;;7.80;99.90;;;;;;5018091;28;20448;-61
2022/04/08 06:40:13;;;;;;;4.45;1.15;;;7.90;99.90;;;;;;5013748;28;20037;-60
2022/04/08 06:42:39;;;;;;;5.38;1.20;;;8.20;99.90;;;;;;5038525;28;20095;-60
2022/04/08 06:45:08;;;;;;;6.07;0.85;;;8.50;99.90;;;;;;5033355;28;20161;-60
2022/04/08 06:47:33;;;;;;;6.05;0.80;;;9.00;99.90;;;;;;5037336;28;20063;-60
2022/04/08 06:49:59;;;;;;;2.55;0.55;;;9.20;99.90;;;;;;5034926;28;20032;-60
2022/04/08 06:52:25;;;;;;;7.57;0.60;;;9.10;99.90;;;;;;5035480;28;20504;-61
2022/04/08 06:54:50;;;;;;;2.03;0.30;;;9.00;99.90;;;;;;5038165;28;20061;-60
2022/04/08 06:57:16;;;;;;;8.75;0.70;;;8.80;99.90;;;;;;5036053;28;20040;-62
2022/04/08 06:59:42;;;;;;;2.47;0.90;;;8.60;99.90;;;;;;5038456;28;20038;-61
2022/04/08 07:02:08;;;;;;;3.17;0.80;;;8.60;99.90;;;;;;5031336;28;20148;-60
2022/04/08 07:04:37;;;;;;;3.38;0.52;;;8.60;99.90;;;;;;5048542;28;20029;-61
2022/04/08 07:07:06;;;;;;;2.97;0.75;;;8.60;99.90;;;;;;5049792;28;20059;-61
2022/04/08 07:09:33;;;;;;;4.97;0.60;;;8.50;99.90;;;;;;5049392;28;20029;-60
2022/04/08 07:11:59;;;;;;;4.22;0.70;;;8.40;99.90;;;;;;5049402;28;20552;-61
2022/04/08 07:14:25;;;;;;;7.30;0.70;;;8.50;99.90;;;;;;5046896;28;20029;-61
2022/04/08 07:16:50;;;;;;;4.35;0.70;;;8.60;99.90;;;;;;5047416;28;20044;-61
2022/04/08 07:19:16;;;;;;;7.22;1.33;;;8.50;99.90;;;;;;5037441;28;20026;-61
2022/04/08 07:21:42;;;;;;;4.80;0.73;;;8.50;99.90;;;;;;5035108;28;20053;-60
2022/04/08 07:24:07;;;;;;;5.13;0.52;;;8.60;99.90;;;;;;5038159;28;20090;-60
2022/04/08 07:26:33;;;;;;;3.28;0.85;;;8.60;99.90;;;;;;5040529;28;20553;-60
2022/04/08 07:29:00;;;;;;;7.25;1.20;;;8.60;99.90;;;;;;5040315;28;20029;-60
2022/04/08 07:31:26;;;;;;;5.68;0.75;;;8.60;99.90;;;;;;5042222;28;20025;-60
2022/04/08 07:33:52;;;;;;;4.32;0.73;;;8.60;99.90;;;;;;5029862;28;20033;-60
2022/04/08 07:36:17;;;;;;;8.50;0.45;;;8.60;99.90;;;;;;5048572;28;20489;-61
2022/04/08 07:38:43;;;;;;;6.50;0.57;;;8.70;99.90;;;;;;5047440;28;20032;-61
2022/04/08 07:41:09;;;;;;;6.82;0.90;;;8.80;99.90;;;;;;5044205;28;20048;-61
2022/04/08 07:43:34;;;;;;;3.78;0.68;;;8.80;99.90;;;;;;5050661;28;20864;-60
2022/04/08 07:46:00;;;;;;;3.33;0.70;;;8.80;99.90;;;;;;5031059;28;20032;-61
2022/04/08 07:48:27;;;;;;;15.30;1.20;;;8.80;99.90;;;;;;5030818;28;20501;-63
2022/04/08 07:50:53;;;;;;;7.88;0.65;;;8.90;99.90;;;;;;5047955;28;20040;-60
2022/04/08 07:53:19;;;;;;;17.30;1.65;;;9.00;99.90;;;;;;5048427;28;20049;-60
2022/04/08 07:55:44;;;;;;;10.07;1.02;;;8.90;99.90;;;;;;5049458;28;20626;-61
2022/04/08 07:58:10;;;;;;;6.80;0.90;;;9.00;99.90;;;;;;5037812;28;20049;-63
2022/04/08 08:00:36;;;;;;;6.20;1.23;;;9.10;99.90;;;;;;5041261;28;20091;-60
2022/04/08 08:03:03;;;;;;;5.78;1.02;;;9.20;99.90;;;;;;5017796;28;20412;-60
2022/04/08 08:05:30;;;;;;;4.63;1.08;;;9.10;99.90;;;;;;5036103;28;20529;-60
2022/04/08 08:07:58;;;;;;;7.85;1.00;;;9.20;99.90;;;;;;5047990;28;20122;-62
2022/04/08 08:10:26;;;;;;;3.63;1.20;;;9.30;99.90;;;;;;5044155;28;20037;-61
2022/04/08 08:12:53;;;;;;;7.20;1.05;;;9.40;99.90;;;;;;5049183;28;20029;-61
2022/04/08 08:15:19;;;;;;;6.47;1.05;;;9.40;99.90;;;;;;5048922;28;20037;-61
2022/04/08 08:17:46;;;;;;;8.18;0.90;;;9.50;99.90;;;;;;5049626;28;20554;-60
2022/04/08 08:20:13;;;;;;;4.30;0.43;;;9.70;99.90;;;;;;5047819;28;20405;-61
2022/04/08 08:22:41;;;;;;;12.43;1.67;;;9.80;99.90;;;;;;5031815;28;20064;-61
2022/04/08 08:25:07;;;;;;;8.20;1.35;;;9.80;99.90;;;;;;5049542;28;20021;-63
2022/04/08 08:27:39;;;;;;;6.45;0.88;;;9.80;99.90;;;;;;5048878;28;20029;-61
2022/04/08 08:30:10;;;;;;;12.95;1.15;;;9.80;99.90;;;;;;5030364;28;20033;-62
2022/04/08 08:32:39;;;;;;;4.70;0.70;;;9.90;99.90;;;;;;5048989;28;20082;-60
2022/04/08 08:35:07;;;;;;;12.80;1.10;;;10.00;99.90;;;;;;5049293;28;20079;-62
2022/04/08 08:37:34;;;;;;;4.60;0.60;;;10.00;99.90;;;;;;5048451;28;20025;-60
2022/04/08 08:39:59;;;;;;;11.00;0.85;;;10.10;99.90;;;;;;5048299;28;20029;-60
2022/04/08 08:42:26;;;;;;;5.93;1.17;;;10.30;99.90;;;;;;5051435;28;20055;-61
2022/04/08 08:44:52;;;;;;;3.78;0.52;;;10.40;99.90;;;;;;5045186;28;20036;-60
2022/04/08 08:47:18;;;;;;;6.07;1.45;;;10.60;99.90;;;;;;5048908;28;20033;-60
2022/04/08 08:49:49;;;;;;;5.25;1.38;;;10.80;99.90;;;;;;5042150;28;20063;-60
2022/04/08 08:52:16;;;;;;;11.90;1.38;;;10.90;99.90;;;;;;5045638;28;20044;-62
2022/04/08 08:54:44;;;;;;;7.50;0.95;;;11.00;99.90;;;;;;5036838;28;20036;-61
2022/04/08 08:57:10;;;;;;;8.50;0.80;;;11.10;99.90;;;;;;5039060;28;20036;-60
2022/04/08 08:59:36;;;;;;;4.68;0.55;;;11.00;99.90;;;;;;5043013;28;20033;-60
2022/04/08 09:02:03;;;;;;;8.13;0.85;;;10.90;99.90;;;;;;5042682;28;20032;-62
2022/04/08 09:04:30;;;;;;;1.60;0.38;;;10.90;99.90;;;;;;5043101;28;20041;-60
2022/04/08 09:06:56;;;;;;;4.63;0.60;;;10.70;99.90;;;;;;5044378;28;20029;-60
2022/04/08 09:09:31;;;;;;;5.97;0.50;;;10.60;99.90;;;;;;5043175;28;20029;-61
2022/04/08 09:12:14;;;;;;;6.32;0.57;;;10.50;99.90;;;;;;5042846;28;20057;-61
2022/04/08 09:14:47;;;;;;;5.03;1.17;;;10.60;99.90;;;;;;5045545;28;20048;-61
2022/04/08 09:17:12;;;;;;;7.47;0.45;;;10.40;99.90;;;;;;5042691;28;20029;-61
2022/04/08 09:19:38;;;;;;;3.38;0.30;;;10.40;99.90;;;;;;5042018;28;20508;-61
2022/04/08 09:22:03;;;;;;;4.28;0.82;;;10.40;99.90;;;;;;5026802;28;20029;-61
2022/04/08 09:24:30;;;;;;;7.82;2.00;;;10.50;99.90;;;;;;5044137;28;22134;-62
2022/04/08 09:26:56;;;;;;;7.40;0.88;;;10.50;99.90;;;;;;5041676;28;20532;-61
2022/04/08 09:29:23;;;;;;;6.45;0.82;;;10.60;99.90;;;;;;5043288;28;20108;-60
2022/04/08 09:31:52;;;;;;;5.03;0.50;;;10.70;99.90;;;;;;5045176;28;20591;-60
2022/04/08 09:34:20;;;;;;;4.90;0.85;;;10.70;99.90;;;;;;5041246;28;20037;-62
2022/04/08 09:36:45;;;;;;;4.78;0.57;;;10.80;99.90;;;;;;5041533;28;20025;-60
2022/04/08 09:39:11;;;;;;;2.25;0.32;;;10.70;99.90;;;;;;5042596;28;20033;-63
2022/04/08 09:41:42;;;;;;;3.50;0.25;;;10.70;99.90;;;;;;5043672;28;20523;-61
2022/04/08 09:44:09;;;;;;;2.30;0.40;;;10.70;99.90;;;;;;5043807;28;20033;-62
2022/04/08 09:46:36;;;;;;;8.10;0.60;;;10.70;99.90;;;;;;5040899;28;20033;-61
2022/04/08 09:49:04;;;;;;;3.40;0.60;;;10.40;99.90;;;;;;5045764;28;20090;-61
2022/04/08 09:51:41;;;;;;;2.17;0.75;;;10.40;99.90;;;;;;5040653;28;22858;-61
2022/04/08 09:54:10;;;;;;;15.20;0.70;;;10.30;99.90;;;;;;5042443;28;20047;-60
2022/04/08 09:56:37;;;;;;;2.15;0.20;;;10.30;99.90;;;;;;5042434;28;20043;-61
2022/04/08 09:59:22;;;;;;;3.17;1.30;;;10.30;99.90;;;;;;5035842;28;20029;-62
2022/04/08 10:01:50;;;;;;;4.82;0.73;;;10.20;99.90;;;;;;5037362;28;20039;-61
2022/04/08 10:04:17;;;;;;;6.03;0.63;;;10.30;99.90;;;;;;5038829;28;20032;-62
2022/04/08 10:06:43;;;;;;;4.68;0.70;;;10.40;99.90;;;;;;5044831;28;20040;-61
2022/04/08 10:09:17;;;;;;;5.30;0.50;;;10.50;99.90;;;;;;5040235;28;20021;-60
2022/04/08 10:11:44;;;;;;;3.63;0.38;;;10.60;99.90;;;;;;5040168;28;20028;-61
2022/04/08 10:14:34;;;;;;;9.27;0.40;;;10.80;99.90;;;;;;5046067;28;20110;-61
2022/04/08 10:17:00;;;;;;;7.25;0.50;;;10.90;99.90;;;;;;5042805;28;20033;-61
2022/04/08 10:19:29;;;;;;;5.13;0.38;;;10.90;99.90;;;;;;5043916;28;20036;-61
2022/04/08 10:21:55;;;;;;;5.28;0.55;;;10.80;99.90;;;;;;5038508;28;20722;-61
2022/04/08 10:24:31;;;;;;;3.28;0.40;;;10.80;99.90;;;;;;5033238;28;20504;-61
2022/04/08 10:27:09;;;;;;;9.05;0.47;;;10.90;99.90;;;;;;5036470;28;20455;-61
2022/04/08 10:29:36;;;;;;;2.88;0.30;;;10.90;99.90;;;;;;5036821;28;20057;-61
2022/04/08 10:32:12;;;;;;;5.10;0.45;;;10.80;99.90;;;;;;5045640;28;20033;-61
2022/04/08 10:34:37;;;;;;;11.27;1.30;;;10.90;99.90;;;;;;5045519;28;20089;-61
2022/04/08 10:37:17;;;;;;;2.92;0.65;;;10.90;99.90;;;;;;5041914;28;20120;-61
2022/04/08 10:40:03;;;;;;;2.13;0.85;;;11.10;99.90;;;;;;5039966;28;20026;-61
2022/04/08 10:42:29;;;;;;;4.88;0.80;;;11.00;99.90;;;;;;5042340;28;20143;-61
2022/04/08 10:44:55;;;;;;;6.32;0.95;;;11.00;99.90;;;;;;5043730;28;20028;-60
2022/04/08 10:47:21;;;;;;;4.75;0.90;;;11.00;99.90;;;;;;5039429;28;20078;-60
2022/04/08 10:49:52;;;;;;;3.53;0.68;;;11.00;99.90;;;;;;5038911;28;20145;-60
2022/04/08 10:52:22;;;;;;;4.15;0.90;;;11.00;99.90;;;;;;5042108;28;20131;-60
2022/04/08 10:55:02;;;;;;;5.55;0.90;;;10.80;99.90;;;;;;5024165;28;20029;-60
2022/04/08 10:57:45;;;;;;;2.88;0.57;;;10.80;99.90;;;;;;5045075;28;20072;-61
2022/04/08 11:00:12;;;;;;;4.55;0.60;;;10.70;99.90;;;;;;5027235;28;20068;-61
2022/04/08 11:02:40;;;;;;;5.97;0.80;;;10.50;99.90;;;;;;5047036;28;20393;-61
2022/04/08 11:05:11;;;;;;;9.10;1.02;;;10.50;99.90;;;;;;5047123;28;20117;-61
2022/04/08 11:07:41;;;;;;;5.40;0.50;;;10.30;99.90;;;;;;5029146;28;20033;-61
2022/04/08 11:10:18;;;;;;;4.03;0.50;;;10.40;99.90;;;;;;5028426;28;20125;-61
2022/04/08 11:12:47;;;;;;;4.93;0.80;;;10.20;99.90;;;;;;5023930;28;20037;-61
2022/04/08 11:15:18;;;;;;;11.55;1.88;;;10.20;99.90;;;;;;5042512;28;20095;-61
2022/04/08 11:17:46;;;;;;;5.75;0.50;;;10.30;99.90;;;;;;5042933;28;20040;-61
2022/04/08 11:20:14;;;;;;;17.00;1.20;;;10.40;99.90;;;;;;5045454;28;20094;-63
2022/04/08 11:22:40;;;;;;;4.50;0.40;;;10.50;99.90;;;;;;5047048;28;20497;-61
2022/04/08 11:25:08;;;;;;;2.78;0.30;;;10.60;99.90;;;;;;5046569;28;20044;-61
2022/04/08 11:27:33;;;;;;;9.98;0.68;;;10.60;99.90;;;;;;5046339;28;20489;-60
2022/04/08 11:29:59;;;;;;;5.05;0.70;;;10.60;99.90;;;;;;5045882;28;20057;-62
2022/04/08 11:32:31;;;;;;;8.75;0.68;;;10.60;99.90;;;;;;5045722;28;20130;-63
2022/04/08 11:34:56;;;;;;;3.25;0.90;;;10.70;99.90;;;;;;5046572;28;20032;-62
2022/04/08 11:37:26;;;;;;;4.32;1.00;;;10.80;99.90;;;;;;5046235;28;20041;-61
2022/04/08 11:39:58;;;;;;;3.78;1.00;;;10.90;99.90;;;;;;5045705;28;20090;-60
2022/04/08 11:42:26;;;;;;;10.60;0.82;;;11.00;99.90;;;;;;5047436;28;20037;-61
2022/04/08 11:44:51;;;;;;;6.65;0.88;;;11.00;99.90;;;;;;5046170;28;20059;-61
2022/04/08 11:47:17;;;;;;;4.70;0.93;;;11.10;99.90;;;;;;5046213;28;20126;-62
2022/04/08 11:49:43;;;;;;;7.90;0.68;;;11.30;99.90;;;;;;5047190;28;20025;-61
2022/04/08 11:52:09;;;;;;;6.85;0.70;;;11.30;99.90;;;;;;5049331;28;20037;-61
2022/04/08 11:54:39;;;;;;;7.70;0.50;;;11.20;99.90;;;;;;5049816;28;20041;-61
2022/04/08 11:57:06;;;;;;;2.27;0.40;;;11.30;99.90;;;;;;5049990;28;20041;-61
2022/04/08 11:59:33;;;;;;;5.88;0.40;;;11.20;99.90;;;;;;5049184;28;20363;-60
2022/04/08 12:01:59;;;;;;;2.45;0.40;;;11.30;99.90;;;;;;5049109;28;20025;-62
2022/04/08 12:04:26;;;;;;;3.67;0.65;;;11.10;99.90;;;;;;5049742;28;20033;-61
2022/04/08 12:06:51;;;;;;;3.92;0.30;;;11.10;99.90;;;;;;5049763;28;20090;-61
2022/04/08 12:09:20;;;;;;;1.20;0.30;;;10.90;99.90;;;;;;5049454;28;20059;-62
2022/04/08 12:11:47;;;;;;;7.95;0.80;;;10.90;99.90;;;;;;5047226;28;20029;-60
2022/04/08 12:14:14;;;;;;;7.63;0.60;;;10.80;99.90;;;;;;5049458;28;20033;-62
2022/04/08 12:16:41;;;;;;;7.05;0.90;;;10.80;99.90;;;;;;5046068;28;20029;-61
2022/04/08 12:19:08;;;;;;;3.15;0.70;;;10.80;99.90;;;;;;5049516;28;20025;-61
2022/04/08 12:21:34;;;;;;;4.53;0.95;;;10.90;99.90;;;;;;5048370;28;20124;-61
2022/04/08 12:24:04;;;;;;;1.70;0.30;;;11.00;99.90;;;;;;5049474;28;20087;-61
2022/04/08 12:26:35;;;;;;;5.97;0.63;;;10.90;99.90;;;;;;5049137;28;20044;-61
2022/04/08 12:29:14;;;;;;;2.28;0.30;;;10.80;99.90;;;;;;5049497;28;20524;-61
2022/04/08 12:31:50;;;;;;;6.63;0.80;;;10.80;99.90;;;;;;5045037;28;20063;-61
2022/04/08 12:34:17;;;;;;;4.35;0.52;;;10.90;99.90;;;;;;5046168;28;20033;-61
2022/04/08 12:36:43;;;;;;;3.65;0.90;;;10.80;99.90;;;;;;5048990;28;20405;-62
2022/04/08 12:39:10;;;;;;;2.47;0.60;;;10.90;99.90;;;;;;5049199;28;20057;-61
2022/04/08 12:41:43;;;;;;;9.25;0.68;;;11.00;99.90;;;;;;5030386;28;20068;-60
2022/04/08 12:44:10;;;;;;;6.13;0.50;;;11.00;99.90;;;;;;5045591;28;20106;-61
2022/04/08 12:46:36;;;;;;;8.68;0.73;;;11.10;99.90;;;;;;5048931;28;20036;-61
2022/04/08 12:49:04;;;;;;;3.55;0.55;;;11.10;99.90;;;;;;5031043;28;20037;-60